Time;durP1;ratioP1;P1;durP2;ratioP2;P2;SDS_P1;SDS_P2;PMS_P1;PMS_P2;Temp;Humidity;BMP_temperature;BMP_pressure;BME280_temperature;BME280_humidity;BME280_pressure;Samples;Min_cycle;Max_cycle;Signal;HPM_P1;HPM_P2
2022/01/03 00:01:58;;;;;;;7.10;2.03;;;7.90;99.90;;;;;;5073179;28;20053;-72
2022/01/03 00:04:25;;;;;;;7.40;1.77;;;8.00;99.90;;;;;;5071486;28;20446;-73
2022/01/03 00:06:52;;;;;;;8.23;3.28;;;8.00;99.90;;;;;;5071057;28;20094;-73
2022/01/03 00:09:20;;;;;;;5.82;2.00;;;8.10;99.90;;;;;;5071721;28;20442;-72
2022/01/03 00:11:47;;;;;;;13.18;2.00;;;8.10;99.90;;;;;;5071335;28;20053;-72
2022/01/03 00:14:13;;;;;;;7.78;2.60;;;8.20;99.90;;;;;;5071201;28;20055;-72
2022/01/03 00:16:40;;;;;;;8.10;2.33;;;8.20;99.90;;;;;;5071596;28;20052;-72
2022/01/03 00:19:08;;;;;;;9.88;3.25;;;8.20;99.90;;;;;;5070715;28;20605;-72
2022/01/03 00:21:46;;;;;;;8.25;2.15;;;8.30;99.90;;;;;;5088677;28;20114;-72
2022/01/03 00:24:14;;;;;;;9.82;2.60;;;8.30;99.90;;;;;;5071345;28;20048;-72
2022/01/03 00:26:43;;;;;;;20.35;2.88;;;8.40;99.90;;;;;;5070772;28;20577;-72
2022/01/03 00:29:15;;;;;;;7.28;2.13;;;8.40;99.90;;;;;;5088115;28;20060;-73
2022/01/03 00:31:43;;;;;;;13.75;2.78;;;8.40;99.90;;;;;;5071793;28;20098;-73
2022/01/03 00:34:13;;;;;;;12.15;3.03;;;8.50;99.90;;;;;;5070637;28;20052;-73
2022/01/03 00:36:42;;;;;;;12.40;3.50;;;8.60;99.90;;;;;;5088205;28;20079;-73
2022/01/03 00:39:10;;;;;;;6.82;2.33;;;8.50;99.90;;;;;;5071192;28;20473;-73
2022/01/03 00:41:39;;;;;;;8.98;2.28;;;8.50;99.90;;;;;;5070868;28;20053;-73
2022/01/03 00:44:07;;;;;;;10.43;3.00;;;8.60;99.90;;;;;;5071081;28;20484;-73
2022/01/03 00:46:34;;;;;;;14.15;3.28;;;8.60;99.90;;;;;;5070840;28;20500;-73
2022/01/03 00:49:02;;;;;;;10.57;3.47;;;8.60;99.90;;;;;;5070838;28;20393;-73
2022/01/03 00:51:30;;;;;;;9.57;2.88;;;8.70;99.90;;;;;;5071417;28;20102;-73
2022/01/03 00:53:57;;;;;;;9.80;3.65;;;8.60;99.90;;;;;;5070981;28;20092;-73
2022/01/03 00:56:28;;;;;;;10.77;2.72;;;8.60;99.90;;;;;;5070685;28;20106;-72
2022/01/03 00:59:00;;;;;;;18.65;4.40;;;8.60;99.90;;;;;;5071095;28;20052;-72
2022/01/03 01:01:27;;;;;;;17.27;2.75;;;8.60;99.90;;;;;;5074502;28;20506;-72
2022/01/03 01:03:56;;;;;;;11.35;3.67;;;8.50;99.90;;;;;;5091694;28;20480;-73
2022/01/03 01:06:25;;;;;;;11.52;3.58;;;8.50;99.90;;;;;;5074453;28;20052;-72
2022/01/03 01:08:57;;;;;;;17.85;3.25;;;8.50;99.90;;;;;;5074263;28;20171;-73
2022/01/03 01:11:28;;;;;;;12.30;3.38;;;8.50;99.90;;;;;;5075022;28;20492;-73
2022/01/03 01:13:56;;;;;;;15.75;3.28;;;8.50;99.90;;;;;;5091117;28;20094;-72
2022/01/03 01:16:23;;;;;;;13.23;3.22;;;8.50;99.90;;;;;;5074056;28;20082;-72
2022/01/03 01:18:51;;;;;;;17.15;3.38;;;8.50;99.90;;;;;;5074854;28;20053;-73
2022/01/03 01:21:18;;;;;;;21.88;3.45;;;8.50;99.90;;;;;;5074633;28;20297;-72
2022/01/03 01:23:48;;;;;;;16.33;4.75;;;8.50;99.90;;;;;;5090635;28;20541;-72
2022/01/03 01:29:04;;;;;;;21.63;4.22;;;8.50;99.90;;;;;;5074030;28;20052;-73
2022/01/03 01:31:33;;;;;;;16.73;3.75;;;8.50;99.90;;;;;;5074344;28;20053;-71
2022/01/03 01:34:04;;;;;;;22.27;4.03;;;8.50;99.90;;;;;;5074211;28;20098;-72
2022/01/03 01:36:32;;;;;;;15.88;3.22;;;8.50;99.90;;;;;;5074589;28;20102;-72
2022/01/03 01:39:03;;;;;;;17.33;3.47;;;8.60;99.90;;;;;;5074225;28;20052;-72
2022/01/03 01:41:33;;;;;;;26.13;4.50;;;8.60;99.90;;;;;;5074230;28;20056;-72
2022/01/03 01:44:01;;;;;;;16.17;4.45;;;8.70;99.90;;;;;;5073958;28;20157;-73
2022/01/03 01:46:28;;;;;;;21.80;4.28;;;8.60;99.90;;;;;;5073736;28;20484;-73
2022/01/03 01:48:55;;;;;;;16.95;3.50;;;8.70;99.90;;;;;;5074293;28;20102;-73
2022/01/03 01:51:24;;;;;;;24.00;5.40;;;8.70;99.90;;;;;;5073487;28;20088;-73
2022/01/03 01:53:53;;;;;;;11.60;3.00;;;8.70;99.90;;;;;;5073964;28;20106;-73
2022/01/03 01:56:24;;;;;;;12.48;3.40;;;8.70;99.90;;;;;;5074680;28;20057;-73
2022/01/03 01:59:10;;;;;;;17.75;3.67;;;8.80;99.90;;;;;;5090107;28;20496;-72
2022/01/03 02:01:44;;;;;;;17.33;4.47;;;8.80;99.90;;;;;;5074062;28;20053;-72
2022/01/03 02:04:20;;;;;;;17.65;3.40;;;8.80;99.90;;;;;;5074208;28;20041;-72
2022/01/03 02:06:50;;;;;;;19.20;4.47;;;8.80;99.90;;;;;;5104860;28;20053;-70
2022/01/03 02:09:20;;;;;;;20.95;3.55;;;8.90;99.90;;;;;;5078047;28;20419;-72
2022/01/03 02:11:50;;;;;;;19.98;5.00;;;8.90;99.90;;;;;;5072465;28;20106;-72
2022/01/03 02:14:20;;;;;;;23.63;4.90;;;8.90;99.90;;;;;;5090739;28;20098;-72
2022/01/03 02:16:47;;;;;;;17.97;3.47;;;8.90;99.90;;;;;;5090307;28;20121;-72
2022/01/03 02:19:15;;;;;;;17.75;4.53;;;8.90;99.90;;;;;;5073044;28;20591;-72
2022/01/03 02:21:43;;;;;;;17.27;4.32;;;8.90;99.90;;;;;;5073465;28;20053;-72
2022/01/03 02:24:10;;;;;;;26.40;4.43;;;8.90;99.90;;;;;;5072900;28;20388;-72
2022/01/03 02:26:37;;;;;;;15.15;3.63;;;9.00;99.90;;;;;;5089420;28;20048;-72
2022/01/03 02:29:04;;;;;;;14.68;3.97;;;9.00;99.90;;;;;;5073363;28;20102;-73
2022/01/03 02:31:32;;;;;;;18.65;4.43;;;9.00;99.90;;;;;;5073192;28;20105;-72
2022/01/03 02:34:00;;;;;;;25.73;5.18;;;9.00;99.90;;;;;;5089558;28;20507;-72
2022/01/03 02:36:30;;;;;;;21.25;4.60;;;9.00;99.90;;;;;;5072903;28;20412;-71
2022/01/03 02:38:58;;;;;;;18.45;4.10;;;8.90;99.90;;;;;;5073046;28;20048;-71
2022/01/03 02:41:25;;;;;;;21.40;4.57;;;8.90;99.90;;;;;;5089364;28;20052;-72
2022/01/03 02:43:53;;;;;;;17.83;5.47;;;8.90;99.90;;;;;;5073030;28;20044;-72
2022/01/03 02:46:20;;;;;;;18.20;3.72;;;8.90;99.90;;;;;;5072733;28;20102;-73
2022/01/03 02:48:47;;;;;;;26.15;4.53;;;8.90;99.90;;;;;;5072377;28;20052;-72
2022/01/03 02:51:15;;;;;;;16.77;3.83;;;8.80;99.90;;;;;;5072136;28;20102;-73
2022/01/03 02:53:41;;;;;;;22.13;4.22;;;8.80;99.90;;;;;;5072246;28;20399;-71
2022/01/03 02:56:10;;;;;;;28.98;5.32;;;8.80;99.90;;;;;;5072045;28;20056;-71
2022/01/03 02:58:37;;;;;;;22.05;4.38;;;8.80;99.90;;;;;;5072424;28;20095;-71
2022/01/03 03:01:04;;;;;;;19.48;4.45;;;8.80;99.90;;;;;;5071735;28;20106;-72
2022/01/03 03:03:32;;;;;;;23.80;4.38;;;8.80;99.90;;;;;;5072710;28;20048;-72
2022/01/03 03:05:59;;;;;;;20.88;4.68;;;8.70;99.90;;;;;;5072181;28;20060;-72
2022/01/03 03:08:27;;;;;;;15.10;3.47;;;8.80;99.90;;;;;;5071962;28;20056;-73
2022/01/03 03:10:54;;;;;;;25.60;4.60;;;8.70;99.90;;;;;;5072148;28;20102;-72
2022/01/03 03:13:23;;;;;;;20.05;4.90;;;8.70;99.90;;;;;;5072293;28;20561;-72
2022/01/03 03:15:50;;;;;;;21.80;4.82;;;8.60;99.90;;;;;;5071312;28;20059;-72
2022/01/03 03:18:17;;;;;;;24.33;5.45;;;8.60;99.90;;;;;;5072376;28;20045;-72
2022/01/03 03:20:44;;;;;;;19.80;3.95;;;8.50;99.90;;;;;;5071872;28;20090;-72
2022/01/03 03:23:11;;;;;;;20.17;4.80;;;8.50;99.90;;;;;;5070634;28;20063;-71
2022/01/03 03:25:38;;;;;;;21.58;5.03;;;8.50;99.90;;;;;;5071713;28;20496;-72
2022/01/03 03:28:08;;;;;;;16.80;4.38;;;8.40;99.90;;;;;;5072173;28;20052;-72
2022/01/03 03:30:39;;;;;;;25.58;4.82;;;8.30;99.90;;;;;;5071141;28;20048;-72
2022/01/03 03:33:09;;;;;;;16.83;5.80;;;8.30;99.90;;;;;;5071622;28;20056;-72
2022/01/03 03:35:36;;;;;;;21.35;4.45;;;8.30;99.90;;;;;;5073043;28;20048;-72
2022/01/03 03:38:04;;;;;;;29.23;4.88;;;8.20;99.90;;;;;;5071628;28;20080;-72
2022/01/03 03:40:31;;;;;;;27.95;5.18;;;8.20;99.90;;;;;;5071973;28;20048;-72
2022/01/03 03:42:58;;;;;;;21.58;5.20;;;8.20;99.90;;;;;;5071390;28;20085;-72
2022/01/03 03:45:25;;;;;;;26.27;6.25;;;8.10;99.90;;;;;;5071502;28;20090;-73
2022/01/03 03:47:54;;;;;;;25.33;5.15;;;8.10;99.90;;;;;;5071939;28;20088;-73
2022/01/03 03:50:21;;;;;;;26.75;4.45;;;8.10;99.90;;;;;;5071286;28;20480;-72
2022/01/03 03:52:48;;;;;;;20.00;4.28;;;8.10;99.90;;;;;;5071488;28;20060;-72
2022/01/03 03:55:14;;;;;;;20.70;4.18;;;8.10;99.90;;;;;;5088320;28;20052;-72
2022/01/03 03:57:42;;;;;;;14.75;4.00;;;8.10;99.90;;;;;;5070919;28;20055;-72
2022/01/03 04:00:11;;;;;;;15.73;4.57;;;8.10;99.90;;;;;;5071897;28;20242;-73
2022/01/03 04:02:38;;;;;;;27.23;5.10;;;8.10;99.90;;;;;;5071874;28;20103;-73
2022/01/03 04:05:07;;;;;;;20.75;4.38;;;8.10;99.90;;;;;;5071168;28;20094;-72
2022/01/03 04:07:35;;;;;;;21.13;4.40;;;8.00;99.90;;;;;;5071317;28;20049;-72
2022/01/03 04:10:03;;;;;;;22.67;4.97;;;8.10;99.90;;;;;;5088430;28;20496;-72
2022/01/03 04:12:30;;;;;;;17.65;4.65;;;8.10;99.90;;;;;;5072146;28;20098;-72
2022/01/03 04:14:57;;;;;;;23.23;5.80;;;8.10;99.90;;;;;;5072771;28;20052;-72
2022/01/03 04:17:24;;;;;;;28.17;4.93;;;8.70;99.90;;;;;;5070830;28;20075;-72
2022/01/03 04:19:50;;;;;;;24.33;5.68;;;8.10;99.90;;;;;;5071055;28;20049;-72
2022/01/03 04:22:19;;;;;;;23.75;5.35;;;8.10;99.90;;;;;;5071727;28;20056;-72
2022/01/03 04:24:45;;;;;;;25.60;4.97;;;8.20;99.90;;;;;;5071379;28;20041;-72
2022/01/03 04:27:12;;;;;;;25.58;4.85;;;8.20;99.90;;;;;;5070557;28;20048;-71
2022/01/03 04:29:39;;;;;;;13.95;3.90;;;8.20;99.90;;;;;;5072836;28;20057;-71
2022/01/03 04:32:07;;;;;;;27.20;5.70;;;8.30;99.90;;;;;;5070640;28;20048;-71
2022/01/03 04:34:34;;;;;;;32.97;6.10;;;8.30;99.90;;;;;;5074550;28;20102;-71
2022/01/03 04:37:01;;;;;;;19.35;4.82;;;8.30;99.90;;;;;;5074718;28;20052;-70
2022/01/03 04:39:29;;;;;;;21.25;4.72;;;8.30;99.90;;;;;;5075807;28;20052;-72
2022/01/03 04:41:56;;;;;;;32.90;5.57;;;8.30;99.90;;;;;;5075379;28;20057;-72
2022/01/03 04:44:23;;;;;;;29.73;5.38;;;8.30;99.90;;;;;;5075203;28;20110;-72
2022/01/03 04:46:51;;;;;;;19.67;5.60;;;8.30;99.90;;;;;;5074401;28;20526;-73
2022/01/03 04:49:17;;;;;;;28.27;5.47;;;8.30;99.90;;;;;;5091783;28;20052;-70
2022/01/03 04:51:44;;;;;;;20.95;4.82;;;8.30;99.90;;;;;;5074972;28;20098;-73
2022/01/03 04:54:11;;;;;;;20.13;4.18;;;8.30;99.90;;;;;;5074375;28;20492;-73
2022/01/03 04:56:40;;;;;;;18.70;4.95;;;8.30;99.90;;;;;;5074248;28;20048;-71
2022/01/03 04:59:06;;;;;;;22.02;4.72;;;8.30;99.90;;;;;;5074932;28;20492;-71
2022/01/03 05:01:33;;;;;;;26.42;5.47;;;8.30;99.90;;;;;;5074404;28;20408;-72
2022/01/03 05:04:00;;;;;;;19.55;5.03;;;8.30;99.90;;;;;;5074865;28;20666;-72
2022/01/03 05:06:27;;;;;;;19.13;4.45;;;8.30;99.90;;;;;;5074730;28;20079;-72
2022/01/03 05:08:54;;;;;;;25.75;4.85;;;8.30;99.90;;;;;;5074102;28;20500;-71
2022/01/03 05:11:21;;;;;;;20.58;5.32;;;8.30;99.90;;;;;;5074796;28;20483;-71
2022/01/03 05:13:49;;;;;;;26.13;6.15;;;8.30;99.90;;;;;;5074671;28;20052;-71
2022/01/03 05:16:17;;;;;;;21.50;5.00;;;8.30;99.90;;;;;;5072005;28;20106;-71
2022/01/03 05:18:44;;;;;;;25.80;6.38;;;8.30;99.90;;;;;;5071466;28;20053;-70
2022/01/03 05:21:11;;;;;;;41.58;6.57;;;8.30;99.90;;;;;;5061822;28;20606;-70
2022/01/03 05:23:38;;;;;;;29.50;7.10;;;8.30;99.90;;;;;;5067676;28;20048;-71
2022/01/03 05:26:05;;;;;;;25.00;6.15;;;8.30;99.90;;;;;;5079291;28;20073;-71
2022/01/03 05:28:32;;;;;;;24.50;6.22;;;8.20;99.90;;;;;;5067776;28;20052;-71
2022/01/03 05:31:01;;;;;;;23.27;6.30;;;8.20;99.90;;;;;;5067953;28;20562;-70
2022/01/03 05:33:28;;;;;;;24.20;6.13;;;8.30;99.90;;;;;;5070223;28;20064;-70
2022/01/03 05:35:55;;;;;;;22.30;5.43;;;8.20;99.90;;;;;;5079356;28;20461;-70
2022/01/03 05:38:22;;;;;;;19.52;6.38;;;8.20;99.90;;;;;;5071759;28;20153;-70
2022/01/03 05:40:48;;;;;;;23.83;5.57;;;8.20;99.90;;;;;;5068973;28;20492;-71
2022/01/03 05:43:15;;;;;;;31.52;6.07;;;8.20;99.90;;;;;;5080363;28;20463;-71
2022/01/03 05:45:42;;;;;;;23.60;5.18;;;8.20;99.90;;;;;;5069686;28;20101;-70
2022/01/03 05:48:10;;;;;;;20.75;5.20;;;8.20;99.90;;;;;;5070784;28;20049;-70
2022/01/03 05:50:37;;;;;;;30.23;6.13;;;8.10;99.90;;;;;;5070639;28;20110;-71
2022/01/03 05:53:04;;;;;;;29.00;6.13;;;8.20;99.90;;;;;;5068747;28;20056;-71
2022/01/03 05:55:31;;;;;;;26.25;6.70;;;8.20;99.90;;;;;;5068026;28;20064;-70
2022/01/03 05:57:58;;;;;;;34.72;5.70;;;8.30;99.90;;;;;;5067267;28;20114;-70
2022/01/03 06:00:26;;;;;;;28.98;6.22;;;8.30;99.90;;;;;;5082025;28;20060;-70
2022/01/03 06:02:56;;;;;;;22.20;5.07;;;8.30;99.90;;;;;;5078117;28;20048;-70
2022/01/03 06:08:09;;;;;;;28.50;6.00;;;8.30;99.90;;;;;;5065881;28;20508;-70
2022/01/03 06:10:40;;;;;;;22.05;4.95;;;8.30;99.90;;;;;;5077577;28;20508;-70
2022/01/03 06:13:07;;;;;;;26.52;6.05;;;8.20;99.90;;;;;;5071128;28;20056;-71
2022/01/03 06:15:37;;;;;;;23.15;6.03;;;8.30;99.90;;;;;;5078401;28;20095;-70
2022/01/03 06:18:04;;;;;;;21.83;5.32;;;8.20;99.90;;;;;;5068569;28;20048;-72
2022/01/03 06:20:33;;;;;;;25.40;5.55;;;8.30;99.90;;;;;;5070086;28;20105;-71
2022/01/03 06:23:00;;;;;;;24.63;5.82;;;8.20;99.90;;;;;;5067988;28;20056;-71
2022/01/03 06:25:27;;;;;;;28.98;6.00;;;8.20;99.90;;;;;;5066975;28;20114;-71
2022/01/03 06:27:54;;;;;;;24.23;6.50;;;8.20;99.90;;;;;;5067689;28;20048;-72
2022/01/03 06:30:22;;;;;;;29.10;6.53;;;8.20;99.90;;;;;;5072744;28;20113;-72
2022/01/03 06:32:49;;;;;;;29.20;5.97;;;8.20;99.90;;;;;;5070864;28;20464;-72
2022/01/03 06:35:16;;;;;;;31.45;5.82;;;8.20;99.90;;;;;;5070523;28;20114;-72
2022/01/03 06:37:44;;;;;;;26.33;5.72;;;8.30;99.90;;;;;;5072293;28;20053;-72
2022/01/03 06:40:12;;;;;;;26.25;6.45;;;8.30;99.90;;;;;;5073614;28;20052;-72
2022/01/03 06:42:39;;;;;;;23.98;4.97;;;8.30;99.90;;;;;;5074312;28;20048;-72
2022/01/03 06:45:06;;;;;;;20.20;5.45;;;8.30;99.90;;;;;;5089929;28;20495;-72
2022/01/03 06:47:33;;;;;;;21.55;4.85;;;8.30;99.90;;;;;;5072201;28;20098;-72
2022/01/03 06:50:00;;;;;;;24.23;5.97;;;8.20;99.90;;;;;;5072915;28;20091;-72
2022/01/03 06:52:27;;;;;;;22.60;5.63;;;8.20;99.90;;;;;;5072841;28;20052;-72
2022/01/03 06:54:55;;;;;;;25.80;5.55;;;8.10;99.90;;;;;;5088799;28;20045;-72
2022/01/03 06:57:22;;;;;;;21.55;5.90;;;8.10;99.90;;;;;;5087761;28;20399;-72
2022/01/03 06:59:49;;;;;;;21.30;6.25;;;8.10;99.90;;;;;;5071830;28;20094;-72
2022/01/03 07:02:16;;;;;;;27.73;6.18;;;8.10;99.90;;;;;;5072739;28;20048;-72
2022/01/03 07:04:43;;;;;;;25.92;5.82;;;8.10;99.90;;;;;;5072445;28;20063;-72
2022/01/03 07:07:10;;;;;;;22.63;6.07;;;8.00;99.90;;;;;;5088981;28;20052;-72
2022/01/03 07:09:37;;;;;;;27.90;5.13;;;8.00;99.90;;;;;;5073665;28;20090;-72
2022/01/03 07:12:06;;;;;;;28.77;5.53;;;8.00;99.90;;;;;;5072861;28;20458;-71
2022/01/03 07:20:03;;;;;;;27.70;6.03;;;8.10;99.90;;;;;;5072237;28;20110;-71
2022/01/03 07:22:30;;;;;;;24.40;5.20;;;8.20;99.90;;;;;;5071973;28;20052;-71
2022/01/03 07:24:58;;;;;;;24.92;5.20;;;8.10;99.90;;;;;;5072204;28;20068;-72
2022/01/03 07:27:26;;;;;;;21.88;5.00;;;8.10;99.90;;;;;;5088956;28;20056;-72
2022/01/03 07:29:53;;;;;;;22.83;5.63;;;8.20;99.90;;;;;;5071404;28;20126;-71
2022/01/03 07:32:20;;;;;;;26.38;6.13;;;8.20;99.90;;;;;;5088816;28;20048;-70
2022/01/03 07:34:47;;;;;;;22.38;5.07;;;8.20;99.90;;;;;;5089057;28;20052;-71
2022/01/03 07:37:14;;;;;;;27.25;5.47;;;8.30;99.90;;;;;;5071066;28;20499;-71
2022/01/03 07:39:40;;;;;;;39.20;6.72;;;8.30;99.90;;;;;;5071875;28;20079;-72
2022/01/03 07:42:07;;;;;;;26.63;6.22;;;8.30;99.90;;;;;;5087980;28;20049;-71
2022/01/03 07:44:36;;;;;;;27.10;7.05;;;8.30;99.90;;;;;;5071928;28;20122;-72
2022/01/03 07:47:05;;;;;;;21.20;5.63;;;8.30;99.90;;;;;;5073011;28;20110;-72
2022/01/03 07:49:32;;;;;;;37.58;6.07;;;8.30;99.90;;;;;;5071229;28;20083;-72
2022/01/03 07:51:59;;;;;;;32.40;6.32;;;8.30;99.90;;;;;;5072021;28;20098;-73
2022/01/03 07:54:26;;;;;;;28.52;6.45;;;8.20;99.90;;;;;;5071833;28;20055;-72
2022/01/03 07:56:52;;;;;;;30.02;7.03;;;8.30;99.90;;;;;;5070838;28;20078;-72
2022/01/03 07:59:19;;;;;;;26.30;6.00;;;8.30;99.90;;;;;;5071922;28;20102;-72
2022/01/03 08:01:47;;;;;;;21.23;5.13;;;8.30;99.90;;;;;;5072979;28;20052;-72
2022/01/03 08:04:14;;;;;;;21.20;5.28;;;8.40;99.90;;;;;;5071239;28;20122;-72
2022/01/03 08:06:41;;;;;;;30.70;5.22;;;8.40;99.90;;;;;;5072693;28;20052;-72
2022/01/03 08:09:08;;;;;;;19.05;4.95;;;8.50;99.90;;;;;;5088395;28;20110;-72
2022/01/03 08:11:35;;;;;;;28.23;5.72;;;8.50;99.90;;;;;;5071160;28;20052;-72
2022/01/03 08:14:02;;;;;;;24.13;4.95;;;8.60;99.90;;;;;;5071611;28;20098;-72
2022/01/03 08:16:28;;;;;;;37.97;6.43;;;8.60;99.90;;;;;;5071653;28;20469;-72
2022/01/03 08:18:57;;;;;;;35.70;6.15;;;8.60;99.90;;;;;;5071135;28;20060;-72
2022/01/03 08:21:23;;;;;;;25.75;4.35;;;8.70;99.90;;;;;;5071798;28;20090;-72
2022/01/03 08:23:51;;;;;;;23.17;6.00;;;8.70;99.90;;;;;;5071701;28;20393;-72
2022/01/03 08:26:18;;;;;;;33.10;6.22;;;8.80;99.90;;;;;;5087694;28;20051;-72
2022/01/03 08:28:45;;;;;;;24.80;5.32;;;8.70;99.90;;;;;;5088484;28;20126;-72
2022/01/03 08:31:12;;;;;;;23.75;6.93;;;8.70;99.90;;;;;;5071179;28;20056;-71
2022/01/03 08:33:39;;;;;;;35.90;7.03;;;8.80;99.90;;;;;;5071630;28;20052;-71
2022/01/03 08:36:07;;;;;;;28.02;4.82;;;8.80;99.90;;;;;;5088433;28;20088;-72
2022/01/03 08:38:34;;;;;;;24.75;5.47;;;8.80;99.90;;;;;;5087784;28;20122;-72
2022/01/03 08:41:01;;;;;;;20.98;5.43;;;8.90;99.90;;;;;;5071616;28;20060;-72
2022/01/03 08:43:28;;;;;;;21.85;4.85;;;8.90;99.90;;;;;;5071623;28;20492;-72
2022/01/03 08:45:55;;;;;;;23.48;5.68;;;8.90;99.90;;;;;;5070055;28;20452;-71
2022/01/03 08:48:22;;;;;;;27.60;4.63;;;9.00;99.90;;;;;;5072771;28;20055;-74
2022/01/03 08:50:49;;;;;;;26.45;5.10;;;9.30;99.90;;;;;;5060280;28;20041;-72
2022/01/03 08:53:17;;;;;;;24.45;5.40;;;9.00;99.90;;;;;;5054628;28;20496;-72
2022/01/03 08:55:44;;;;;;;32.20;7.00;;;9.00;99.90;;;;;;5061633;28;20131;-72
2022/01/03 08:58:12;;;;;;;25.02;5.38;;;9.00;99.90;;;;;;5068055;28;20056;-71
2022/01/03 09:00:39;;;;;;;26.08;5.80;;;9.10;99.90;;;;;;5059217;28;20497;-71
2022/01/03 09:03:06;;;;;;;21.55;5.97;;;9.10;99.90;;;;;;5060692;28;20496;-70
2022/01/03 09:05:35;;;;;;;27.60;6.53;;;9.10;99.90;;;;;;5052879;28;20104;-69
2022/01/03 09:08:02;;;;;;;26.70;5.22;;;9.10;99.90;;;;;;5064329;28;20060;-70
2022/01/03 09:10:30;;;;;;;26.85;4.72;;;9.20;99.90;;;;;;5082683;28;20492;-71
2022/01/03 09:12:58;;;;;;;20.92;5.05;;;9.20;99.90;;;;;;5066616;28;20048;-71
2022/01/03 09:15:25;;;;;;;21.23;5.82;;;9.20;99.90;;;;;;5058499;28;20057;-72
2022/01/03 09:17:52;;;;;;;21.65;5.22;;;9.20;99.90;;;;;;5061957;28;20045;-72
2022/01/03 09:20:19;;;;;;;29.02;7.13;;;9.30;99.90;;;;;;5057314;28;20059;-72
2022/01/03 09:22:48;;;;;;;26.88;5.57;;;9.50;99.90;;;;;;5057700;28;20461;-71
2022/01/03 09:30:46;;;;;;;26.02;6.28;;;9.50;99.90;;;;;;5069263;28;20534;-72
2022/01/03 09:33:13;;;;;;;18.15;5.10;;;9.60;99.90;;;;;;5067264;28;20090;-72
2022/01/03 09:35:40;;;;;;;31.65;6.85;;;9.80;99.90;;;;;;5062705;28;20107;-73
2022/01/03 09:38:07;;;;;;;14.93;4.70;;;9.70;99.90;;;;;;5071306;28;20122;-72
2022/01/03 09:40:36;;;;;;;30.27;6.55;;;9.80;99.90;;;;;;5063203;28;20070;-72
2022/01/03 09:43:04;;;;;;;26.67;4.80;;;9.80;99.90;;;;;;5063944;28;20135;-72
2022/01/03 09:45:33;;;;;;;21.25;5.15;;;9.80;99.90;;;;;;5063314;28;20071;-72
2022/01/03 09:48:03;;;;;;;25.30;4.30;;;10.00;99.90;;;;;;5066906;28;20044;-72
2022/01/03 09:50:33;;;;;;;19.63;5.30;;;10.10;99.90;;;;;;5076758;28;20101;-71
2022/01/03 09:53:02;;;;;;;22.67;5.00;;;10.40;99.90;;;;;;5066960;28;20545;-72
2022/01/03 09:55:32;;;;;;;20.83;4.93;;;10.40;99.90;;;;;;5060364;28;20311;-72
2022/01/03 09:58:00;;;;;;;26.10;5.82;;;10.40;99.90;;;;;;5068179;28;20057;-72
2022/01/03 10:00:28;;;;;;;20.00;5.25;;;10.40;99.90;;;;;;5068799;28;20057;-73
2022/01/03 10:02:56;;;;;;;25.52;4.93;;;10.40;99.90;;;;;;5070394;28;20091;-73
2022/01/03 10:05:23;;;;;;;21.60;5.70;;;10.40;99.90;;;;;;5060309;28;20044;-72
2022/01/03 10:07:50;;;;;;;17.90;5.93;;;10.50;99.90;;;;;;5062971;28;20052;-72
2022/01/03 10:10:17;;;;;;;14.38;3.63;;;10.50;99.90;;;;;;5063447;28;20048;-73
2022/01/03 10:12:44;;;;;;;21.42;5.53;;;10.50;99.90;;;;;;5062385;28;20048;-72
2022/01/03 10:15:12;;;;;;;21.63;5.47;;;10.80;99.90;;;;;;5065078;28;20060;-72
2022/01/03 10:17:42;;;;;;;20.83;5.05;;;11.10;99.90;;;;;;5073470;28;20102;-72
2022/01/03 10:20:12;;;;;;;19.85;4.93;;;11.30;99.90;;;;;;5064618;28;20067;-72
2022/01/03 10:22:41;;;;;;;23.52;5.93;;;11.30;99.90;;;;;;5060464;28;20068;-73
2022/01/03 10:25:18;;;;;;;21.65;6.50;;;11.40;99.90;;;;;;5065295;28;20056;-73
2022/01/03 10:27:47;;;;;;;17.45;4.82;;;11.30;99.90;;;;;;5060368;28;20488;-73
2022/01/03 10:30:28;;;;;;;19.92;5.55;;;11.40;99.90;;;;;;5055110;28;20057;-73
2022/01/03 10:32:56;;;;;;;15.45;5.40;;;11.50;99.90;;;;;;5059773;28;20048;-72
2022/01/03 10:35:24;;;;;;;21.88;6.43;;;11.80;99.90;;;;;;5054962;28;20053;-72
2022/01/03 10:37:51;;;;;;;17.90;4.40;;;11.90;99.90;;;;;;5079714;28;20044;-73
2022/01/03 10:40:21;;;;;;;18.35;4.93;;;12.10;99.90;;;;;;5062079;28;20110;-74
2022/01/03 10:42:48;;;;;;;22.88;6.25;;;11.90;99.90;;;;;;5063842;28;20097;-72
2022/01/03 10:45:27;;;;;;;18.40;4.93;;;12.00;99.90;;;;;;5064762;28;20087;-72
2022/01/03 10:47:56;;;;;;;18.13;5.03;;;11.60;99.90;;;;;;5063297;28;20040;-72
2022/01/03 10:50:24;;;;;;;37.88;6.35;;;11.60;99.90;;;;;;5053127;28;20305;-72
2022/01/03 10:52:51;;;;;;;25.85;6.18;;;11.60;99.90;;;;;;5063212;28;20408;-73
2022/01/03 10:55:22;;;;;;;20.20;5.25;;;11.50;99.90;;;;;;5062328;28;20629;-73
2022/01/03 10:57:53;;;;;;;16.23;5.70;;;11.50;99.90;;;;;;5054230;28;20045;-72
2022/01/03 11:00:23;;;;;;;25.13;5.18;;;11.40;99.90;;;;;;5065789;28;20071;-72
2022/01/03 11:03:21;;;;;;;23.63;4.43;;;11.30;99.90;;;;;;5053653;28;20554;-73
2022/01/03 11:05:51;;;;;;;19.88;5.45;;;11.10;99.90;;;;;;5059463;28;20305;-72
2022/01/03 11:11:03;;;;;;;16.65;4.85;;;10.80;99.90;;;;;;5061817;28;20129;-73
2022/01/03 11:13:32;;;;;;;19.42;5.35;;;10.80;99.90;;;;;;5059580;28;20088;-72
2022/01/03 11:16:01;;;;;;;24.38;5.68;;;10.70;99.90;;;;;;5075912;28;20492;-72
2022/01/03 11:18:32;;;;;;;18.02;5.13;;;10.60;99.90;;;;;;5053922;28;20049;-72
2022/01/03 11:21:06;;;;;;;21.73;4.45;;;10.50;99.90;;;;;;5061872;28;20492;-72
2022/01/03 11:23:34;;;;;;;27.58;4.93;;;10.60;99.90;;;;;;5061264;28;20053;-71
2022/01/03 11:26:06;;;;;;;20.80;5.90;;;10.50;99.90;;;;;;5061281;28;20131;-70
2022/01/03 11:28:34;;;;;;;21.38;4.13;;;10.60;99.90;;;;;;5053631;28;20064;-72
2022/01/03 11:31:02;;;;;;;20.80;4.82;;;10.60;99.90;;;;;;5053128;28;20136;-72
2022/01/03 11:33:31;;;;;;;17.38;4.85;;;10.70;99.90;;;;;;5054251;28;20045;-71
2022/01/03 11:36:01;;;;;;;20.73;4.68;;;10.90;99.90;;;;;;5059532;28;20063;-72
2022/01/03 11:38:30;;;;;;;18.60;4.82;;;11.20;99.90;;;;;;5064973;28;20052;-72
2022/01/03 11:40:59;;;;;;;21.05;4.85;;;11.40;99.90;;;;;;5061289;28;20068;-72
2022/01/03 11:43:27;;;;;;;23.58;5.25;;;11.80;99.90;;;;;;5058374;28;20059;-73
2022/01/03 11:45:54;;;;;;;15.23;4.43;;;12.00;99.90;;;;;;5073441;28;20053;-72
2022/01/03 11:48:21;;;;;;;16.95;4.68;;;12.40;99.90;;;;;;5060936;28;20048;-72
2022/01/03 11:50:51;;;;;;;20.83;4.65;;;12.80;99.90;;;;;;5061167;28;20057;-71
2022/01/03 11:53:20;;;;;;;16.00;4.77;;;12.90;99.90;;;;;;5061474;28;20136;-72
2022/01/03 11:55:52;;;;;;;21.17;4.95;;;12.90;99.90;;;;;;5061559;28;20059;-72
2022/01/03 11:58:46;;;;;;;21.75;5.22;;;12.70;99.90;;;;;;5053182;28;20056;-72
2022/01/03 12:04:02;;;;;;;20.88;5.38;;;12.80;99.90;;;;;;5059952;28;20093;-72
2022/01/03 12:06:33;;;;;;;20.23;4.85;;;12.40;99.90;;;;;;5053183;28;20045;-71
2022/01/03 12:09:05;;;;;;;21.70;5.28;;;12.20;99.90;;;;;;5062069;28;20052;-72
2022/01/03 12:11:33;;;;;;;18.80;4.45;;;11.90;99.90;;;;;;5062268;28;20041;-72
2022/01/03 12:14:09;;;;;;;19.70;4.30;;;11.60;99.90;;;;;;5076779;28;20109;-72
2022/01/03 12:16:57;;;;;;;20.08;4.78;;;11.60;99.90;;;;;;5063866;28;20048;-72
2022/01/03 12:19:30;;;;;;;14.50;4.25;;;11.40;99.90;;;;;;5053001;28;20064;-72
2022/01/03 12:22:17;;;;;;;25.00;4.95;;;11.40;99.90;;;;;;5056874;28;20048;-72
2022/01/03 12:24:53;;;;;;;19.30;4.82;;;11.20;99.90;;;;;;5061620;28;20098;-71
2022/01/03 12:27:26;;;;;;;20.52;4.63;;;11.10;99.90;;;;;;5060300;28;20137;-71
2022/01/03 12:30:08;;;;;;;27.60;5.47;;;10.90;99.90;;;;;;5064749;28;20063;-71
2022/01/03 12:32:36;;;;;;;17.45;4.63;;;10.90;99.90;;;;;;5056279;28;20243;-71
2022/01/03 12:35:23;;;;;;;21.27;6.30;;;10.90;99.90;;;;;;5055587;28;20127;-70
2022/01/03 12:38:14;;;;;;;19.98;4.35;;;11.00;99.90;;;;;;5069383;28;20045;-70
2022/01/03 12:40:59;;;;;;;21.60;5.20;;;11.20;99.90;;;;;;5064238;28;20065;-70
2022/01/03 12:43:45;;;;;;;24.42;5.55;;;11.30;99.90;;;;;;5066123;28;20053;-72
2022/01/03 12:46:17;;;;;;;25.95;5.18;;;11.60;99.90;;;;;;5063685;28;20061;-71
2022/01/03 12:48:44;;;;;;;20.45;4.85;;;11.80;99.90;;;;;;5062525;28;20048;-71
2022/01/03 12:51:16;;;;;;;18.85;4.28;;;11.80;99.90;;;;;;5069110;28;20072;-72
2022/01/03 12:53:52;;;;;;;27.15;5.90;;;11.80;99.90;;;;;;5060202;28;20056;-72
2022/01/03 12:56:31;;;;;;;18.15;4.50;;;11.60;99.90;;;;;;5050104;28;20520;-72
2022/01/03 12:58:59;;;;;;;28.10;5.88;;;11.60;99.90;;;;;;5070906;28;20068;-72
2022/01/03 13:01:30;;;;;;;20.02;5.22;;;11.40;99.90;;;;;;5063027;28;20396;-72
2022/01/03 13:03:59;;;;;;;19.40;4.43;;;11.20;99.90;;;;;;5061988;28;20511;-72
2022/01/03 13:06:31;;;;;;;13.35;3.60;;;11.10;99.90;;;;;;5064107;28;20056;-71
2022/01/03 13:09:06;;;;;;;21.35;5.07;;;11.00;99.90;;;;;;5057171;28;20056;-71
2022/01/03 13:11:35;;;;;;;19.90;4.80;;;11.00;99.90;;;;;;5056940;28;20052;-72
2022/01/03 13:14:04;;;;;;;17.67;5.05;;;10.90;99.90;;;;;;5063484;28;20083;-72
2022/01/03 13:16:33;;;;;;;13.00;4.25;;;10.80;99.90;;;;;;5064480;28;20098;-72